Cosco Melbourne — V7IF5 — position and weather

sailwx.info

Track history (hours):
 
Tides and Currents Weather Stations Pressure Air Temp Water Temp Dewpoint Dewpoint Depression Visibility Wind Speed Wind Dir Waves Ship Positions

Cosco Melbourne

Last reported at 2015-Mar-04 13:33 UTC. Time now 2015-Mar-06 17:40 UTC.
Position N 01°15' E 104°06'.

Type: Ship (hazmat cat A). MMSI: 538002366.

Date/timePositionNaut miles runAvg speedWind from/ knotsBaromVisibWave heightAir tempDewpointWater temp
2015-Mar-04 13:33N 01°15' E 104°06'1411.0
2015-Mar-04 12:15N 01°14' E 103°52'2 2.6
2015-Mar-04 11:32N 01°16' E 103°51'0 0.0
2015-Mar-04 10:29N 01°16' E 103°51'0 0.0
2015-Mar-04 09:11N 01°16' E 103°51'0 0.0
2015-Mar-04 08:22N 01°16' E 103°51'0 0.0
2015-Mar-04 07:10N 01°16' E 103°51'0 0.0
2015-Mar-04 06:21N 01°16' E 103°51'0 0.0
2015-Mar-04 05:33N 01°16' E 103°51'0 0.0
2015-Mar-04 04:33N 01°16' E 103°51'0 0.0
2015-Mar-04 02:20N 01°16' E 103°51'0 0.0
2015-Mar-04 01:31N 01°16' E 103°51'0 0.0
2015-Mar-04 00:31N 01°16' E 103°51'0 0.0
2015-Mar-03 23:31N 01°16' E 103°51'0 0.0
2015-Mar-03 22:30N 01°16' E 103°51'0 0.0
2015-Mar-03 21:30N 01°16' E 103°51'0 0.0
2015-Mar-03 20:29N 01°16' E 103°51'0 0.0
2015-Mar-03 19:32N 01°16' E 103°51'0 0.0
2015-Mar-03 18:28N 01°16' E 103°51'0 0.0
2015-Mar-03 17:28N 01°16' E 103°51'0 0.0
2015-Mar-03 16:27N 01°16' E 103°51'0 0.0
2015-Mar-03 15:33N 01°16' E 103°51'0 0.0
2015-Mar-03 14:33N 01°16' E 103°51'0 0.0
2015-Mar-03 13:32N 01°16' E 103°51'0 0.0
2015-Mar-03 12:32N 01°16' E 103°51'2 2.4
2015-Mar-03 11:32N 01°15' E 103°53'0 0.0
2015-Mar-03 10:26N 01°15' E 103°53'0 0.0
2015-Mar-03 09:08N 01°15' E 103°53'0 0.0
2015-Mar-03 05:23N 01°15' E 103°53'0 0.0
2015-Mar-03 03:17N 01°15' E 103°53'0 0.0
2015-Mar-03 01:16N 01°15' E 103°53'0 0.0
2015-Mar-02 22:21N 01°15' E 103°53'0 0.0
2015-Mar-02 19:26N 01°15' E 103°53'0 0.0
2015-Mar-02 18:13N 01°15' E 103°53'0 0.2
2015-Mar-02 17:33N 01°15' E 103°53'4 3.6
2015-Mar-02 16:29N 01°15' E 103°57'7 7.3
2015-Mar-02 15:30N 01°16' E 104°04'7 7.3
2015-Mar-02 14:30N 01°17' E 104°11'  
Track history (hours):
 
Tides and Currents Weather Stations Pressure Air Temp Water Temp Dewpoint Dewpoint Depression Visibility Wind Speed Wind Dir Waves Ship Positions

Cosco Melbourne

Last reported at 2015-Mar-04 13:33 UTC. Time now 2015-Mar-06 17:40 UTC.
Position N 01°15' E 104°06'.

Type: Ship (hazmat cat A). MMSI: 538002366.

Date/timePositionNaut miles runAvg speedWind from/ knotsBaromVisibWave heightAir tempDewpointWater temp
2015-Mar-04 13:33N 01°15' E 104°06'1411.0
2015-Mar-04 12:15N 01°14' E 103°52'2 2.6
2015-Mar-04 11:32N 01°16' E 103°51'0 0.0
2015-Mar-04 10:29N 01°16' E 103°51'0 0.0
2015-Mar-04 09:11N 01°16' E 103°51'0 0.0
2015-Mar-04 08:22N 01°16' E 103°51'0 0.0
2015-Mar-04 07:10N 01°16' E 103°51'0 0.0
2015-Mar-04 06:21N 01°16' E 103°51'0 0.0
2015-Mar-04 05:33N 01°16' E 103°51'0 0.0
2015-Mar-04 04:33N 01°16' E 103°51'0 0.0
2015-Mar-04 02:20N 01°16' E 103°51'0 0.0
2015-Mar-04 01:31N 01°16' E 103°51'0 0.0
2015-Mar-04 00:31N 01°16' E 103°51'0 0.0
2015-Mar-03 23:31N 01°16' E 103°51'0 0.0
2015-Mar-03 22:30N 01°16' E 103°51'0 0.0
2015-Mar-03 21:30N 01°16' E 103°51'0 0.0
2015-Mar-03 20:29N 01°16' E 103°51'0 0.0
2015-Mar-03 19:32N 01°16' E 103°51'0 0.0
2015-Mar-03 18:28N 01°16' E 103°51'0 0.0
2015-Mar-03 17:28N 01°16' E 103°51'0 0.0
2015-Mar-03 16:27N 01°16' E 103°51'0 0.0
2015-Mar-03 15:33N 01°16' E 103°51'0 0.0
2015-Mar-03 14:33N 01°16' E 103°51'0 0.0
2015-Mar-03 13:32N 01°16' E 103°51'0 0.0
2015-Mar-03 12:32N 01°16' E 103°51'2 2.4
2015-Mar-03 11:32N 01°15' E 103°53'0 0.0
2015-Mar-03 10:26N 01°15' E 103°53'0 0.0
2015-Mar-03 09:08N 01°15' E 103°53'0 0.0
2015-Mar-03 05:23N 01°15' E 103°53'0 0.0
2015-Mar-03 03:17N 01°15' E 103°53'0 0.0
2015-Mar-03 01:16N 01°15' E 103°53'0 0.0
2015-Mar-02 22:21N 01°15' E 103°53'0 0.0
2015-Mar-02 19:26N 01°15' E 103°53'0 0.0
2015-Mar-02 18:13N 01°15' E 103°53'0 0.2
2015-Mar-02 17:33N 01°15' E 103°53'4 3.6
2015-Mar-02 16:29N 01°15' E 103°57'7 7.3
2015-Mar-02 15:30N 01°16' E 104°04'7 7.3
2015-Mar-02 14:30N 01°17' E 104°11'  

Dump ship's entire track history